Airfield :







YOU CAN JOIN US ON...

 
LOGIN :

Register | Disclaimer

   EN    FR    IT 

 









Legend :    VFR   Marginal VFR   IFR   Intensive IFR   Very Intensive IFR
Visi :
Ceiling :
>= 8 km
>= 3000ft
5 to 8 km
1000 to 3000 ft
1500m to 5 km
500 to 1000 ft
800 to 1500m
200 to 500 ft
< 800m
< 200 ft
Symbols :   Thunderstorms  Fog  Heavy snow  Heavy precipitations  Wind > 20 kt






- Airport Elevation : 192 ft
- IATA code : BGR


KBGR - Bangor International

CURRENT METAR :
  • 291853Z 11004KT 10SM FEW030 BKN035 OVC045 03/M02 A3018 RMK AO2 SLP223 T00281022

EXPIRED METARs :
  • 291753Z 00000KT 10SM FEW038 SCT045 OVC065 03/M04 A3023 RMK AO2 SLP239 4/009 T00331044 10033 21061 56039
  • 291653Z 34003KT 10SM OVC070 01/M04 A3026 RMK AO2 SLP251 T00111044
  • 291553Z 00000KT 10SM OVC070 M01/M05 A3031 RMK AO2 SLP266 T10111050

TAF KBGR
Valid from the 29 at 18:00 until the 30 at 18:00 UTC


291738Z 2918/3018 13006KT P6SM VCSH OVC035
FM292100 17008KT 3SM -SN OVC025 WS020/20040KT
FM292300 18010KT 2SM -SNRA BR OVC015 WS020/22045KT
FM300400 24008KT 5SM -SHSN OVC025
FM300600 33006KT P6SM BKN040
FM301500 35006KT P6SM SCT050
KZBW FIR / North America



MET'MAP, your aeronautical weather chart ! - Copyright ORBIFLY December 2007 - Disclaimer

ORBIFLY MET'MAP TEAM :

Programming & Development : Alexandra Zaïnal
Original concept : Baudouin d'Aumeries
Technical & hardware support : Manuel Goepfert
Assistance : Marc-Olivier Méhu




SOURCES & CREDITS :

   NOAA